sensor_id;sensor_type;location;lat;lon;timestamp;P1;durP1;ratioP1;P2;durP2;ratioP2
55423;SDS011;41294;42.666;23.350;2023-05-01T00:00:01;5.47;;;4.93;;
55423;SDS011;41294;42.666;23.350;2023-05-01T00:02:28;5.40;;;4.90;;
55423;SDS011;41294;42.666;23.350;2023-05-01T00:04:54;5.27;;;4.70;;
55423;SDS011;41294;42.666;23.350;2023-05-01T00:07:20;5.23;;;4.63;;
55423;SDS011;41294;42.666;23.350;2023-05-01T00:09:46;5.60;;;4.93;;
55423;SDS011;41294;42.666;23.350;2023-05-01T00:12:11;5.37;;;4.87;;
55423;SDS011;41294;42.666;23.350;2023-05-01T00:14:37;7.00;;;4.77;;
55423;SDS011;41294;42.666;23.350;2023-05-01T00:17:02;5.33;;;4.83;;
55423;SDS011;41294;42.666;23.350;2023-05-01T00:19:28;5.83;;;5.33;;
55423;SDS011;41294;42.666;23.350;2023-05-01T00:21:53;5.93;;;5.40;;
55423;SDS011;41294;42.666;23.350;2023-05-01T00:24:18;5.07;;;4.60;;
55423;SDS011;41294;42.666;23.350;2023-05-01T00:26:44;5.93;;;5.43;;
55423;SDS011;41294;42.666;23.350;2023-05-01T00:29:10;5.87;;;5.37;;
55423;SDS011;41294;42.666;23.350;2023-05-01T00:31:35;6.00;;;5.50;;
55423;SDS011;41294;42.666;23.350;2023-05-01T00:34:01;6.20;;;5.60;;
55423;SDS011;41294;42.666;23.350;2023-05-01T00:36:26;6.07;;;5.57;;
55423;SDS011;41294;42.666;23.350;2023-05-01T00:38:52;5.97;;;5.33;;
55423;SDS011;41294;42.666;23.350;2023-05-01T00:41:17;6.33;;;5.27;;
55423;SDS011;41294;42.666;23.350;2023-05-01T00:43:42;6.57;;;5.20;;
55423;SDS011;41294;42.666;23.350;2023-05-01T00:46:08;5.43;;;4.93;;
55423;SDS011;41294;42.666;23.350;2023-05-01T00:48:34;8.03;;;5.60;;
55423;SDS011;41294;42.666;23.350;2023-05-01T00:51:00;7.23;;;5.37;;
55423;SDS011;41294;42.666;23.350;2023-05-01T00:53:28;5.77;;;5.13;;
55423;SDS011;41294;42.666;23.350;2023-05-01T00:55:55;6.17;;;5.67;;
55423;SDS011;41294;42.666;23.350;2023-05-01T00:58:22;6.50;;;5.63;;
55423;SDS011;41294;42.666;23.350;2023-05-01T01:00:48;6.57;;;5.90;;
55423;SDS011;41294;42.666;23.350;2023-05-01T01:03:14;7.30;;;5.80;;
55423;SDS011;41294;42.666;23.350;2023-05-01T01:05:41;8.53;;;6.10;;
55423;SDS011;41294;42.666;23.350;2023-05-01T01:08:23;6.63;;;6.03;;
55423;SDS011;41294;42.666;23.350;2023-05-01T01:10:54;6.47;;;5.80;;
55423;SDS011;41294;42.666;23.350;2023-05-01T01:13:42;6.73;;;6.13;;
55423;SDS011;41294;42.666;23.350;2023-05-01T01:19:15;7.53;;;6.33;;
55423;SDS011;41294;42.666;23.350;2023-05-01T01:21:44;6.40;;;5.90;;
55423;SDS011;41294;42.666;23.350;2023-05-01T01:29:50;6.90;;;6.40;;
55423;SDS011;41294;42.666;23.350;2023-05-01T01:35:41;6.70;;;6.10;;
55423;SDS011;41294;42.666;23.350;2023-05-01T01:38:15;6.97;;;6.27;;
55423;SDS011;41294;42.666;23.350;2023-05-01T01:43:19;6.40;;;5.90;;
55423;SDS011;41294;42.666;23.350;2023-05-01T01:45:47;9.47;;;6.43;;
55423;SDS011;41294;42.666;23.350;2023-05-01T01:48:21;7.07;;;6.47;;
55423;SDS011;41294;42.666;23.350;2023-05-01T01:50:54;7.93;;;6.97;;
55423;SDS011;41294;42.666;23.350;2023-05-01T01:53:23;6.60;;;6.03;;
55423;SDS011;41294;42.666;23.350;2023-05-01T01:55:50;7.23;;;6.30;;
55423;SDS011;41294;42.666;23.350;2023-05-01T01:58:18;8.40;;;6.40;;
55423;SDS011;41294;42.666;23.350;2023-05-01T02:00:50;7.30;;;6.60;;
55423;SDS011;41294;42.666;23.350;2023-05-01T02:03:17;7.43;;;6.23;;
55423;SDS011;41294;42.666;23.350;2023-05-01T02:05:44;7.13;;;6.43;;
55423;SDS011;41294;42.666;23.350;2023-05-01T02:08:11;7.10;;;6.40;;
55423;SDS011;41294;42.666;23.350;2023-05-01T02:10:37;7.47;;;6.67;;
55423;SDS011;41294;42.666;23.350;2023-05-01T02:13:05;6.80;;;6.10;;
55423;SDS011;41294;42.666;23.350;2023-05-01T02:15:31;8.27;;;6.67;;
55423;SDS011;41294;42.666;23.350;2023-05-01T02:18:00;9.30;;;8.30;;
55423;SDS011;41294;42.666;23.350;2023-05-01T02:20:27;12.03;;;10.87;;
55423;SDS011;41294;42.666;23.350;2023-05-01T02:22:54;12.20;;;11.00;;
55423;SDS011;41294;42.666;23.350;2023-05-01T02:25:21;12.70;;;10.17;;
55423;SDS011;41294;42.666;23.350;2023-05-01T02:27:49;21.03;;;17.03;;
55423;SDS011;41294;42.666;23.350;2023-05-01T02:30:19;12.97;;;11.70;;
55423;SDS011;41294;42.666;23.350;2023-05-01T02:32:45;12.03;;;10.80;;
55423;SDS011;41294;42.666;23.350;2023-05-01T02:35:10;12.43;;;11.23;;
55423;SDS011;41294;42.666;23.350;2023-05-01T02:37:36;15.60;;;13.47;;
55423;SDS011;41294;42.666;23.350;2023-05-01T02:40:02;18.20;;;16.37;;
55423;SDS011;41294;42.666;23.350;2023-05-01T02:42:28;16.97;;;15.27;;
55423;SDS011;41294;42.666;23.350;2023-05-01T02:45:02;16.03;;;14.43;;
55423;SDS011;41294;42.666;23.350;2023-05-01T02:47:31;11.57;;;10.37;;
55423;SDS011;41294;42.666;23.350;2023-05-01T02:50:01;10.53;;;9.53;;
55423;SDS011;41294;42.666;23.350;2023-05-01T02:52:27;9.53;;;8.63;;
55423;SDS011;41294;42.666;23.350;2023-05-01T02:54:53;9.50;;;8.60;;
55423;SDS011;41294;42.666;23.350;2023-05-01T02:57:19;10.87;;;9.33;;
55423;SDS011;41294;42.666;23.350;2023-05-01T02:59:45;10.27;;;8.93;;
55423;SDS011;41294;42.666;23.350;2023-05-01T03:02:11;9.03;;;8.17;;
55423;SDS011;41294;42.666;23.350;2023-05-01T03:04:36;9.03;;;8.13;;
55423;SDS011;41294;42.666;23.350;2023-05-01T03:07:02;8.93;;;8.07;;
55423;SDS011;41294;42.666;23.350;2023-05-01T03:09:28;11.00;;;9.00;;
55423;SDS011;41294;42.666;23.350;2023-05-01T03:11:55;9.23;;;8.37;;
55423;SDS011;41294;42.666;23.350;2023-05-01T03:14:21;9.43;;;8.57;;
55423;SDS011;41294;42.666;23.350;2023-05-01T03:16:46;9.77;;;8.87;;
55423;SDS011;41294;42.666;23.350;2023-05-01T03:19:11;9.80;;;8.83;;
55423;SDS011;41294;42.666;23.350;2023-05-01T03:21:37;10.47;;;9.47;;
55423;SDS011;41294;42.666;23.350;2023-05-01T03:24:02;16.37;;;14.70;;
55423;SDS011;41294;42.666;23.350;2023-05-01T03:26:28;22.53;;;18.20;;
55423;SDS011;41294;42.666;23.350;2023-05-01T03:28:54;25.53;;;22.87;;
55423;SDS011;41294;42.666;23.350;2023-05-01T03:31:19;23.17;;;20.67;;
55423;SDS011;41294;42.666;23.350;2023-05-01T03:33:45;23.40;;;20.80;;
55423;SDS011;41294;42.666;23.350;2023-05-01T03:36:11;25.60;;;22.87;;
55423;SDS011;41294;42.666;23.350;2023-05-01T03:38:37;25.47;;;22.87;;
55423;SDS011;41294;42.666;23.350;2023-05-01T03:41:03;25.37;;;22.87;;
55423;SDS011;41294;42.666;23.350;2023-05-01T03:43:29;23.83;;;21.33;;
55423;SDS011;41294;42.666;23.350;2023-05-01T03:45:55;22.87;;;20.47;;
55423;SDS011;41294;42.666;23.350;2023-05-01T03:48:21;22.40;;;20.03;;
55423;SDS011;41294;42.666;23.350;2023-05-01T03:50:47;22.23;;;19.80;;
55423;SDS011;41294;42.666;23.350;2023-05-01T03:53:12;19.67;;;17.73;;
55423;SDS011;41294;42.666;23.350;2023-05-01T03:55:38;19.63;;;17.63;;
55423;SDS011;41294;42.666;23.350;2023-05-01T03:58:04;18.13;;;14.97;;
55423;SDS011;41294;42.666;23.350;2023-05-01T04:00:31;15.77;;;14.10;;
55423;SDS011;41294;42.666;23.350;2023-05-01T04:02:57;14.67;;;13.17;;
55423;SDS011;41294;42.666;23.350;2023-05-01T04:05:22;15.30;;;12.73;;
55423;SDS011;41294;42.666;23.350;2023-05-01T04:07:48;14.37;;;12.73;;
55423;SDS011;41294;42.666;23.350;2023-05-01T04:10:13;12.00;;;10.80;;
55423;SDS011;41294;42.666;23.350;2023-05-01T04:12:39;13.83;;;10.53;;
55423;SDS011;41294;42.666;23.350;2023-05-01T04:15:05;11.43;;;9.70;;
55423;SDS011;41294;42.666;23.350;2023-05-01T04:17:31;11.57;;;9.73;;
55423;SDS011;41294;42.666;23.350;2023-05-01T04:19:57;11.37;;;10.17;;
55423;SDS011;41294;42.666;23.350;2023-05-01T04:22:22;14.47;;;12.97;;
55423;SDS011;41294;42.666;23.350;2023-05-01T04:24:47;13.77;;;12.47;;
55423;SDS011;41294;42.666;23.350;2023-05-01T04:27:13;11.37;;;9.90;;
55423;SDS011;41294;42.666;23.350;2023-05-01T04:29:39;10.82;;;9.57;;
55423;SDS011;41294;42.666;23.350;2023-05-01T04:32:05;10.40;;;9.40;;
55423;SDS011;41294;42.666;23.350;2023-05-01T04:34:31;11.83;;;10.73;;
55423;SDS011;41294;42.666;23.350;2023-05-01T04:36:57;11.50;;;10.25;;
55423;SDS011;41294;42.666;23.350;2023-05-01T04:39:22;13.30;;;11.85;;
55423;SDS011;41294;42.666;23.350;2023-05-01T04:41:48;11.27;;;10.10;;
55423;SDS011;41294;42.666;23.350;2023-05-01T04:44:13;11.57;;;10.20;;
55423;SDS011;41294;42.666;23.350;2023-05-01T04:46:39;16.10;;;10.32;;
55423;SDS011;41294;42.666;23.350;2023-05-01T04:49:04;12.50;;;10.70;;
55423;SDS011;41294;42.666;23.350;2023-05-01T04:51:30;12.85;;;9.98;;
55423;SDS011;41294;42.666;23.350;2023-05-01T04:53:55;11.88;;;8.93;;
55423;SDS011;41294;42.666;23.350;2023-05-01T04:56:21;12.00;;;9.48;;
55423;SDS011;41294;42.666;23.350;2023-05-01T04:58:46;10.82;;;9.73;;
55423;SDS011;41294;42.666;23.350;2023-05-01T05:01:12;10.45;;;9.40;;
55423;SDS011;41294;42.666;23.350;2023-05-01T05:03:37;10.55;;;8.38;;
55423;SDS011;41294;42.666;23.350;2023-05-01T05:06:03;10.32;;;8.90;;
55423;SDS011;41294;42.666;23.350;2023-05-01T05:08:28;9.57;;;8.68;;
55423;SDS011;41294;42.666;23.350;2023-05-01T05:10:57;9.48;;;8.48;;
55423;SDS011;41294;42.666;23.350;2023-05-01T05:13:26;8.00;;;7.28;;
55423;SDS011;41294;42.666;23.350;2023-05-01T05:15:52;9.93;;;8.43;;
55423;SDS011;41294;42.666;23.350;2023-05-01T05:18:17;7.78;;;7.05;;
55423;SDS011;41294;42.666;23.350;2023-05-01T05:20:43;8.93;;;8.07;;
55423;SDS011;41294;42.666;23.350;2023-05-01T05:23:08;8.18;;;7.22;;
55423;SDS011;41294;42.666;23.350;2023-05-01T05:25:34;9.57;;;8.35;;
55423;SDS011;41294;42.666;23.350;2023-05-01T05:27:59;7.45;;;6.57;;
55423;SDS011;41294;42.666;23.350;2023-05-01T05:30:25;8.38;;;7.35;;
55423;SDS011;41294;42.666;23.350;2023-05-01T05:32:51;7.07;;;6.38;;
55423;SDS011;41294;42.666;23.350;2023-05-01T05:35:17;7.25;;;6.55;;
55423;SDS011;41294;42.666;23.350;2023-05-01T05:37:42;7.78;;;6.97;;
55423;SDS011;41294;42.666;23.350;2023-05-01T05:40:08;7.90;;;6.75;;
55423;SDS011;41294;42.666;23.350;2023-05-01T05:42:34;7.03;;;6.32;;
55423;SDS011;41294;42.666;23.350;2023-05-01T05:44:59;7.13;;;5.93;;
55423;SDS011;41294;42.666;23.350;2023-05-01T05:47:25;7.32;;;5.65;;
55423;SDS011;41294;42.666;23.350;2023-05-01T05:49:50;8.05;;;6.57;;
55423;SDS011;41294;42.666;23.350;2023-05-01T05:52:15;9.25;;;6.18;;
55423;SDS011;41294;42.666;23.350;2023-05-01T05:54:41;9.13;;;8.27;;
55423;SDS011;41294;42.666;23.350;2023-05-01T05:57:06;7.63;;;6.35;;
55423;SDS011;41294;42.666;23.350;2023-05-01T05:59:32;7.15;;;5.93;;
55423;SDS011;41294;42.666;23.350;2023-05-01T06:01:57;6.20;;;5.60;;
55423;SDS011;41294;42.666;23.350;2023-05-01T06:04:23;6.07;;;5.57;;
55423;SDS011;41294;42.666;23.350;2023-05-01T06:06:48;6.38;;;5.78;;
55423;SDS011;41294;42.666;23.350;2023-05-01T06:09:14;6.25;;;5.65;;
55423;SDS011;41294;42.666;23.350;2023-05-01T06:11:41;8.20;;;6.55;;
55423;SDS011;41294;42.666;23.350;2023-05-01T06:14:06;6.20;;;5.60;;
55423;SDS011;41294;42.666;23.350;2023-05-01T06:16:31;7.25;;;5.95;;
55423;SDS011;41294;42.666;23.350;2023-05-01T06:18:58;7.63;;;5.75;;
55423;SDS011;41294;42.666;23.350;2023-05-01T06:21:23;6.13;;;5.63;;
55423;SDS011;41294;42.666;23.350;2023-05-01T06:23:49;6.90;;;6.20;;
55423;SDS011;41294;42.666;23.350;2023-05-01T06:26:15;6.25;;;5.63;;
55423;SDS011;41294;42.666;23.350;2023-05-01T06:28:40;6.20;;;5.65;;
55423;SDS011;41294;42.666;23.350;2023-05-01T06:31:05;6.38;;;5.75;;
55423;SDS011;41294;42.666;23.350;2023-05-01T06:33:31;7.90;;;6.80;;
55423;SDS011;41294;42.666;23.350;2023-05-01T06:35:56;7.88;;;6.35;;
55423;SDS011;41294;42.666;23.350;2023-05-01T06:38:24;6.95;;;6.32;;
55423;SDS011;41294;42.666;23.350;2023-05-01T06:40:50;7.70;;;6.85;;
55423;SDS011;41294;42.666;23.350;2023-05-01T06:43:15;6.97;;;6.15;;
55423;SDS011;41294;42.666;23.350;2023-05-01T06:45:41;6.88;;;6.28;;
55423;SDS011;41294;42.666;23.350;2023-05-01T06:48:06;6.43;;;5.25;;
55423;SDS011;41294;42.666;23.350;2023-05-01T06:50:32;6.13;;;5.55;;
55423;SDS011;41294;42.666;23.350;2023-05-01T06:52:57;5.63;;;5.15;;
55423;SDS011;41294;42.666;23.350;2023-05-01T06:55:24;6.28;;;5.40;;
55423;SDS011;41294;42.666;23.350;2023-05-01T06:57:50;6.43;;;5.82;;
55423;SDS011;41294;42.666;23.350;2023-05-01T07:00:16;6.68;;;6.07;;
55423;SDS011;41294;42.666;23.350;2023-05-01T07:02:43;7.30;;;6.57;;
55423;SDS011;41294;42.666;23.350;2023-05-01T07:05:09;6.53;;;5.93;;
55423;SDS011;41294;42.666;23.350;2023-05-01T07:07:34;6.47;;;5.68;;
55423;SDS011;41294;42.666;23.350;2023-05-01T07:10:00;8.85;;;5.20;;
55423;SDS011;41294;42.666;23.350;2023-05-01T07:12:26;7.57;;;6.22;;
55423;SDS011;41294;42.666;23.350;2023-05-01T07:14:53;6.72;;;6.07;;
55423;SDS011;41294;42.666;23.350;2023-05-01T07:17:20;8.50;;;6.90;;
55423;SDS011;41294;42.666;23.350;2023-05-01T07:19:46;9.00;;;6.63;;
55423;SDS011;41294;42.666;23.350;2023-05-01T07:22:11;7.70;;;7.05;;
55423;SDS011;41294;42.666;23.350;2023-05-01T07:24:36;7.20;;;6.60;;
55423;SDS011;41294;42.666;23.350;2023-05-01T07:27:02;7.10;;;6.00;;
55423;SDS011;41294;42.666;23.350;2023-05-01T07:29:27;7.25;;;6.55;;
55423;SDS011;41294;42.666;23.350;2023-05-01T07:31:53;6.88;;;6.28;;
55423;SDS011;41294;42.666;23.350;2023-05-01T07:34:19;9.98;;;7.45;;
55423;SDS011;41294;42.666;23.350;2023-05-01T07:36:44;10.68;;;7.93;;
55423;SDS011;41294;42.666;23.350;2023-05-01T07:39:09;9.43;;;8.10;;
55423;SDS011;41294;42.666;23.350;2023-05-01T07:41:35;10.20;;;7.90;;
55423;SDS011;41294;42.666;23.350;2023-05-01T07:44:00;10.55;;;7.70;;
55423;SDS011;41294;42.666;23.350;2023-05-01T07:46:26;8.57;;;7.75;;
55423;SDS011;41294;42.666;23.350;2023-05-01T07:48:51;11.15;;;7.10;;
55423;SDS011;41294;42.666;23.350;2023-05-01T07:51:16;9.45;;;6.15;;
55423;SDS011;41294;42.666;23.350;2023-05-01T07:53:43;10.07;;;6.88;;
55423;SDS011;41294;42.666;23.350;2023-05-01T07:56:08;8.25;;;7.40;;
55423;SDS011;41294;42.666;23.350;2023-05-01T07:58:34;6.75;;;6.15;;
55423;SDS011;41294;42.666;23.350;2023-05-01T08:01:01;8.98;;;8.15;;
55423;SDS011;41294;42.666;23.350;2023-05-01T08:03:27;6.90;;;6.28;;
55423;SDS011;41294;42.666;23.350;2023-05-01T08:05:53;10.48;;;7.60;;
55423;SDS011;41294;42.666;23.350;2023-05-01T08:08:19;8.80;;;7.93;;
55423;SDS011;41294;42.666;23.350;2023-05-01T08:10:45;8.68;;;6.53;;
55423;SDS011;41294;42.666;23.350;2023-05-01T08:13:11;7.82;;;6.70;;
55423;SDS011;41294;42.666;23.350;2023-05-01T08:15:37;7.32;;;6.63;;
55423;SDS011;41294;42.666;23.350;2023-05-01T08:18:03;7.05;;;6.35;;
55423;SDS011;41294;42.666;23.350;2023-05-01T08:20:31;7.22;;;5.72;;
55423;SDS011;41294;42.666;23.350;2023-05-01T08:22:57;6.60;;;5.88;;
55423;SDS011;41294;42.666;23.350;2023-05-01T08:25:22;9.57;;;5.28;;
55423;SDS011;41294;42.666;23.350;2023-05-01T08:27:49;4.75;;;4.35;;
55423;SDS011;41294;42.666;23.350;2023-05-01T08:30:14;6.25;;;4.93;;
55423;SDS011;41294;42.666;23.350;2023-05-01T08:32:41;6.63;;;4.57;;
55423;SDS011;41294;42.666;23.350;2023-05-01T08:35:06;4.68;;;4.03;;
55423;SDS011;41294;42.666;23.350;2023-05-01T08:37:32;4.60;;;4.00;;
55423;SDS011;41294;42.666;23.350;2023-05-01T08:39:57;5.20;;;3.65;;
55423;SDS011;41294;42.666;23.350;2023-05-01T08:42:22;4.32;;;3.67;;
55423;SDS011;41294;42.666;23.350;2023-05-01T08:44:48;6.45;;;4.00;;
55423;SDS011;41294;42.666;23.350;2023-05-01T08:47:16;5.30;;;4.03;;
55423;SDS011;41294;42.666;23.350;2023-05-01T08:49:43;5.97;;;5.00;;
55423;SDS011;41294;42.666;23.350;2023-05-01T08:52:11;6.07;;;4.30;;
55423;SDS011;41294;42.666;23.350;2023-05-01T08:54:38;5.28;;;4.30;;
55423;SDS011;41294;42.666;23.350;2023-05-01T08:57:08;4.45;;;3.28;;
55423;SDS011;41294;42.666;23.350;2023-05-01T08:59:36;4.32;;;3.72;;
55423;SDS011;41294;42.666;23.350;2023-05-01T09:02:02;4.25;;;3.20;;
55423;SDS011;41294;42.666;23.350;2023-05-01T09:04:34;4.65;;;3.13;;
55423;SDS011;41294;42.666;23.350;2023-05-01T09:07:01;2.58;;;2.38;;
55423;SDS011;41294;42.666;23.350;2023-05-01T09:09:27;3.28;;;2.38;;
55423;SDS011;41294;42.666;23.350;2023-05-01T09:12:27;2.60;;;2.30;;
55423;SDS011;41294;42.666;23.350;2023-05-01T09:14:45;3.42;;;3.13;;
55423;SDS011;41294;42.666;23.350;2023-05-01T09:17:11;4.15;;;3.08;;
55423;SDS011;41294;42.666;23.350;2023-05-01T09:19:37;3.97;;;3.60;;
55423;SDS011;41294;42.666;23.350;2023-05-01T09:22:02;3.95;;;3.08;;
55423;SDS011;41294;42.666;23.350;2023-05-01T09:24:28;4.35;;;2.83;;
55423;SDS011;41294;42.666;23.350;2023-05-01T09:26:53;5.40;;;3.17;;
55423;SDS011;41294;42.666;23.350;2023-05-01T09:29:41;3.90;;;3.42;;
55423;SDS011;41294;42.666;23.350;2023-05-01T09:32:23;5.25;;;3.20;;
55423;SDS011;41294;42.666;23.350;2023-05-01T09:34:52;3.53;;;3.22;;
55423;SDS011;41294;42.666;23.350;2023-05-01T09:40:04;3.55;;;3.00;;
55423;SDS011;41294;42.666;23.350;2023-05-01T09:42:38;6.38;;;3.08;;
55423;SDS011;41294;42.666;23.350;2023-05-01T09:45:06;3.05;;;2.80;;
55423;SDS011;41294;42.666;23.350;2023-05-01T09:47:38;5.55;;;3.10;;
55423;SDS011;41294;42.666;23.350;2023-05-01T09:50:04;4.55;;;3.40;;
55423;SDS011;41294;42.666;23.350;2023-05-01T09:52:29;4.70;;;3.30;;
55423;SDS011;41294;42.666;23.350;2023-05-01T09:57:42;6.47;;;3.30;;
55423;SDS011;41294;42.666;23.350;2023-05-01T10:00:09;3.38;;;3.13;;
55423;SDS011;41294;42.666;23.350;2023-05-01T10:02:36;3.40;;;3.05;;
55423;SDS011;41294;42.666;23.350;2023-05-01T10:05:04;3.72;;;3.10;;
55423;SDS011;41294;42.666;23.350;2023-05-01T10:07:30;7.32;;;3.05;;
55423;SDS011;41294;42.666;23.350;2023-05-01T10:09:55;3.90;;;2.80;;
55423;SDS011;41294;42.666;23.350;2023-05-01T10:12:21;3.20;;;2.50;;
55423;SDS011;41294;42.666;23.350;2023-05-01T10:14:55;3.20;;;2.90;;
55423;SDS011;41294;42.666;23.350;2023-05-01T10:17:22;3.63;;;2.63;;
55423;SDS011;41294;42.666;23.350;2023-05-01T10:19:47;2.80;;;2.60;;
55423;SDS011;41294;42.666;23.350;2023-05-01T10:22:14;2.53;;;2.33;;
55423;SDS011;41294;42.666;23.350;2023-05-01T10:24:41;2.95;;;2.70;;
55423;SDS011;41294;42.666;23.350;2023-05-01T10:27:07;3.05;;;2.85;;
55423;SDS011;41294;42.666;23.350;2023-05-01T10:29:34;6.85;;;2.50;;
55423;SDS011;41294;42.666;23.350;2023-05-01T10:32:03;2.83;;;2.53;;
55423;SDS011;41294;42.666;23.350;2023-05-01T10:35:00;3.72;;;2.70;;
55423;SDS011;41294;42.666;23.350;2023-05-01T10:39:59;2.25;;;2.13;;
55423;SDS011;41294;42.666;23.350;2023-05-01T10:42:24;2.83;;;2.28;;
55423;SDS011;41294;42.666;23.350;2023-05-01T10:44:52;2.53;;;2.30;;
55423;SDS011;41294;42.666;23.350;2023-05-01T10:50:10;2.88;;;2.08;;
55423;SDS011;41294;42.666;23.350;2023-05-01T10:55:36;3.67;;;2.78;;
55423;SDS011;41294;42.666;23.350;2023-05-01T10:58:03;3.35;;;2.60;;
55423;SDS011;41294;42.666;23.350;2023-05-01T11:00:29;3.97;;;2.35;;
55423;SDS011;41294;42.666;23.350;2023-05-01T11:08:29;4.32;;;2.33;;
55423;SDS011;41294;42.666;23.350;2023-05-01T11:13:59;3.08;;;2.28;;
55423;SDS011;41294;42.666;23.350;2023-05-01T11:19:07;3.83;;;2.25;;
55423;SDS011;41294;42.666;23.350;2023-05-01T11:21:45;2.40;;;2.20;;
55423;SDS011;41294;42.666;23.350;2023-05-01T11:24:10;2.28;;;2.08;;
55423;SDS011;41294;42.666;23.350;2023-05-01T11:26:37;2.03;;;1.92;;
55423;SDS011;41294;42.666;23.350;2023-05-01T11:29:04;2.35;;;2.15;;
55423;SDS011;41294;42.666;23.350;2023-05-01T11:31:30;2.50;;;2.30;;
55423;SDS011;41294;42.666;23.350;2023-05-01T11:33:56;2.78;;;2.58;;
55423;SDS011;41294;42.666;23.350;2023-05-01T11:36:23;2.40;;;2.20;;
55423;SDS011;41294;42.666;23.350;2023-05-01T11:38:49;3.05;;;2.50;;
55423;SDS011;41294;42.666;23.350;2023-05-01T11:41:20;2.70;;;2.50;;
55423;SDS011;41294;42.666;23.350;2023-05-01T11:43:47;2.67;;;2.47;;
55423;SDS011;41294;42.666;23.350;2023-05-01T11:46:24;4.40;;;2.80;;
55423;SDS011;41294;42.666;23.350;2023-05-01T11:48:57;2.40;;;2.20;;
55423;SDS011;41294;42.666;23.350;2023-05-01T11:51:24;3.38;;;2.60;;
55423;SDS011;41294;42.666;23.350;2023-05-01T11:54:00;2.78;;;2.33;;
55423;SDS011;41294;42.666;23.350;2023-05-01T11:56:30;2.28;;;2.08;;
55423;SDS011;41294;42.666;23.350;2023-05-01T11:58:57;3.88;;;2.10;;
55423;SDS011;41294;42.666;23.350;2023-05-01T12:01:33;4.88;;;1.80;;
55423;SDS011;41294;42.666;23.350;2023-05-01T12:04:00;2.10;;;2.00;;
55423;SDS011;41294;42.666;23.350;2023-05-01T12:06:37;1.90;;;1.80;;
55423;SDS011;41294;42.666;23.350;2023-05-01T12:09:10;2.20;;;2.00;;
55423;SDS011;41294;42.666;23.350;2023-05-01T12:11:44;2.35;;;2.13;;
55423;SDS011;41294;42.666;23.350;2023-05-01T12:14:12;1.92;;;1.83;;
55423;SDS011;41294;42.666;23.350;2023-05-01T12:16:39;2.58;;;1.50;;
55423;SDS011;41294;42.666;23.350;2023-05-01T12:19:05;3.20;;;1.88;;
55423;SDS011;41294;42.666;23.350;2023-05-01T12:21:31;2.08;;;1.83;;
55423;SDS011;41294;42.666;23.350;2023-05-01T12:24:06;3.10;;;1.65;;
55423;SDS011;41294;42.666;23.350;2023-05-01T12:26:35;1.55;;;1.45;;
55423;SDS011;41294;42.666;23.350;2023-05-01T12:29:03;1.58;;;1.48;;
55423;SDS011;41294;42.666;23.350;2023-05-01T12:31:30;5.55;;;1.92;;
55423;SDS011;41294;42.666;23.350;2023-05-01T12:33:59;2.03;;;1.70;;
55423;SDS011;41294;42.666;23.350;2023-05-01T12:36:26;1.83;;;1.70;;
55423;SDS011;41294;42.666;23.350;2023-05-01T12:38:54;2.20;;;1.50;;
55423;SDS011;41294;42.666;23.350;2023-05-01T12:41:30;1.52;;;1.42;;
55423;SDS011;41294;42.666;23.350;2023-05-01T12:47:05;2.25;;;1.92;;
55423;SDS011;41294;42.666;23.350;2023-05-01T12:49:32;1.98;;;1.75;;
55423;SDS011;41294;42.666;23.350;2023-05-01T12:52:00;3.55;;;2.10;;
55423;SDS011;41294;42.666;23.350;2023-05-01T12:54:28;1.60;;;1.50;;
55423;SDS011;41294;42.666;23.350;2023-05-01T12:59:30;1.98;;;1.77;;
55423;SDS011;41294;42.666;23.350;2023-05-01T13:01:59;4.47;;;1.80;;
55423;SDS011;41294;42.666;23.350;2023-05-01T13:04:26;2.50;;;2.00;;
55423;SDS011;41294;42.666;23.350;2023-05-01T13:06:52;1.92;;;1.60;;
55423;SDS011;41294;42.666;23.350;2023-05-01T13:09:20;2.83;;;1.38;;
55423;SDS011;41294;42.666;23.350;2023-05-01T13:11:59;3.60;;;1.60;;
55423;SDS011;41294;42.666;23.350;2023-05-01T13:14:39;1.92;;;1.50;;
55423;SDS011;41294;42.666;23.350;2023-05-01T13:17:06;6.00;;;1.80;;
55423;SDS011;41294;42.666;23.350;2023-05-01T13:19:32;2.50;;;1.75;;
55423;SDS011;41294;42.666;23.350;2023-05-01T13:21:58;6.57;;;2.30;;
55423;SDS011;41294;42.666;23.350;2023-05-01T13:24:24;2.70;;;2.00;;
55423;SDS011;41294;42.666;23.350;2023-05-01T13:27:00;2.65;;;1.98;;
55423;SDS011;41294;42.666;23.350;2023-05-01T13:29:26;6.25;;;2.20;;
55423;SDS011;41294;42.666;23.350;2023-05-01T13:31:53;3.15;;;2.25;;
55423;SDS011;41294;42.666;23.350;2023-05-01T13:34:22;2.55;;;2.05;;
55423;SDS011;41294;42.666;23.350;2023-05-01T13:36:51;2.67;;;2.00;;
55423;SDS011;41294;42.666;23.350;2023-05-01T13:39:18;2.85;;;1.80;;
55423;SDS011;41294;42.666;23.350;2023-05-01T13:41:47;2.25;;;1.73;;
55423;SDS011;41294;42.666;23.350;2023-05-01T13:44:13;3.53;;;1.95;;
55423;SDS011;41294;42.666;23.350;2023-05-01T13:46:40;3.90;;;2.10;;
55423;SDS011;41294;42.666;23.350;2023-05-01T13:49:06;5.95;;;2.05;;
55423;SDS011;41294;42.666;23.350;2023-05-01T13:51:32;2.88;;;1.70;;
55423;SDS011;41294;42.666;23.350;2023-05-01T13:54:03;2.22;;;1.90;;
55423;SDS011;41294;42.666;23.350;2023-05-01T13:56:29;6.85;;;2.25;;
55423;SDS011;41294;42.666;23.350;2023-05-01T13:58:58;2.75;;;1.80;;
55423;SDS011;41294;42.666;23.350;2023-05-01T14:01:23;2.33;;;1.70;;
55423;SDS011;41294;42.666;23.350;2023-05-01T14:03:49;2.85;;;1.80;;
55423;SDS011;41294;42.666;23.350;2023-05-01T14:06:16;2.15;;;2.05;;
55423;SDS011;41294;42.666;23.350;2023-05-01T14:08:45;2.10;;;1.90;;
55423;SDS011;41294;42.666;23.350;2023-05-01T14:11:12;2.17;;;1.95;;
55423;SDS011;41294;42.666;23.350;2023-05-01T14:13:39;2.00;;;1.90;;
55423;SDS011;41294;42.666;23.350;2023-05-01T14:16:09;3.60;;;2.60;;
55423;SDS011;41294;42.666;23.350;2023-05-01T14:18:42;2.38;;;1.88;;
55423;SDS011;41294;42.666;23.350;2023-05-01T14:21:09;3.10;;;1.70;;
55423;SDS011;41294;42.666;23.350;2023-05-01T14:23:35;2.95;;;1.77;;
55423;SDS011;41294;42.666;23.350;2023-05-01T14:26:00;1.70;;;1.60;;
55423;SDS011;41294;42.666;23.350;2023-05-01T14:28:27;2.55;;;1.88;;
55423;SDS011;41294;42.666;23.350;2023-05-01T14:30:54;2.10;;;1.90;;
55423;SDS011;41294;42.666;23.350;2023-05-01T14:33:19;2.75;;;2.00;;
55423;SDS011;41294;42.666;23.350;2023-05-01T14:35:49;3.75;;;2.22;;
55423;SDS011;41294;42.666;23.350;2023-05-01T14:38:18;2.45;;;2.10;;
55423;SDS011;41294;42.666;23.350;2023-05-01T14:40:45;2.75;;;2.13;;
55423;SDS011;41294;42.666;23.350;2023-05-01T14:43:13;2.10;;;2.00;;
55423;SDS011;41294;42.666;23.350;2023-05-01T14:45:43;2.22;;;2.00;;
55423;SDS011;41294;42.666;23.350;2023-05-01T14:48:20;2.47;;;2.30;;
55423;SDS011;41294;42.666;23.350;2023-05-01T14:50:47;1.80;;;1.63;;
55423;SDS011;41294;42.666;23.350;2023-05-01T14:53:13;2.20;;;1.55;;
55423;SDS011;41294;42.666;23.350;2023-05-01T14:55:39;1.90;;;1.80;;
55423;SDS011;41294;42.666;23.350;2023-05-01T14:58:05;1.75;;;1.65;;
55423;SDS011;41294;42.666;23.350;2023-05-01T15:00:31;1.67;;;1.58;;
55423;SDS011;41294;42.666;23.350;2023-05-01T15:02:57;2.25;;;1.80;;
55423;SDS011;41294;42.666;23.350;2023-05-01T15:05:23;1.60;;;1.50;;
55423;SDS011;41294;42.666;23.350;2023-05-01T15:07:55;1.65;;;1.55;;
55423;SDS011;41294;42.666;23.350;2023-05-01T15:10:21;2.03;;;1.80;;
55423;SDS011;41294;42.666;23.350;2023-05-01T15:12:50;2.50;;;1.92;;
55423;SDS011;41294;42.666;23.350;2023-05-01T15:15:16;1.80;;;1.70;;